createdAt,value
2023-04-28T00:00:02.031Z,74.4
2023-04-28T00:02:28.676Z,74.8
2023-04-28T00:04:55.250Z,74.5
2023-04-28T00:07:20.407Z,73.7
2023-04-28T00:09:46.987Z,75.6
2023-04-28T00:12:13.631Z,76.7
2023-04-28T00:14:40.265Z,75.9
2023-04-28T00:17:06.873Z,75.8
2023-04-28T00:19:33.490Z,76.3
2023-04-28T00:22:00.112Z,77.4
2023-04-28T00:24:26.727Z,76.8
2023-04-28T00:26:53.341Z,78.3
2023-04-28T00:29:19.966Z,80.8
2023-04-28T00:31:46.590Z,81.8
2023-04-28T00:34:13.291Z,81.2
2023-04-28T00:36:39.850Z,80
2023-04-28T00:39:04.967Z,77.9
2023-04-28T00:41:31.598Z,82.1
2023-04-28T00:43:58.224Z,84.6
2023-04-28T00:46:24.828Z,83.8
2023-04-28T00:48:51.449Z,82.4
2023-04-28T00:51:18.094Z,88
2023-04-28T00:53:44.746Z,83.8
2023-04-28T00:56:11.358Z,83.8
2023-04-28T00:58:37.984Z,83.2
2023-04-28T01:01:04.582Z,82.9
2023-04-28T01:03:31.210Z,86.8
2023-04-28T01:05:57.821Z,85.2
2023-04-28T01:08:24.438Z,85.1
2023-04-28T01:10:49.573Z,87.1
2023-04-28T01:13:16.189Z,83.2
2023-04-28T01:15:42.842Z,86.2
2023-04-28T01:18:09.434Z,83.3
2023-04-28T01:20:36.064Z,86.7
2023-04-28T01:23:02.687Z,84.3
2023-04-28T01:25:29.318Z,83.8
2023-04-28T01:27:55.926Z,88.6
2023-04-28T01:30:22.545Z,90.1
2023-04-28T01:32:49.203Z,88.9
2023-04-28T01:35:15.788Z,85
2023-04-28T01:37:42.430Z,83.3
2023-04-28T01:40:09.045Z,80.7
2023-04-28T01:42:34.210Z,80.6
2023-04-28T01:45:00.813Z,80.9
2023-04-28T01:47:27.407Z,79.1
2023-04-28T01:49:54.058Z,78.8
2023-04-28T01:52:20.732Z,77.4
2023-04-28T01:54:47.304Z,81.2
2023-04-28T01:57:13.903Z,82.7
2023-04-28T01:59:40.522Z,85.1
2023-04-28T02:02:07.152Z,81.7
2023-04-28T02:04:33.791Z,82.5
2023-04-28T02:07:00.401Z,82.6
2023-04-28T02:09:27.014Z,83.8
2023-04-28T02:11:53.638Z,81.1
2023-04-28T02:14:18.770Z,74.8
2023-04-28T02:16:45.391Z,74.1
2023-04-28T02:19:12.018Z,72.1
2023-04-28T02:21:38.641Z,74.5
2023-04-28T02:24:05.262Z,77
2023-04-28T02:26:31.898Z,79.7
2023-04-28T02:28:58.504Z,83.6
2023-04-28T02:31:25.122Z,79.4
2023-04-28T02:33:51.760Z,82.1
2023-04-28T02:36:18.391Z,82.6
2023-04-28T02:38:45.024Z,79.6
2023-04-28T02:41:11.639Z,76
2023-04-28T02:43:38.241Z,74.6
2023-04-28T02:48:30.002Z,76.6
2023-04-28T02:50:56.617Z,76.8
2023-04-28T02:53:23.251Z,81.5
2023-04-28T02:55:49.865Z,84.1
2023-04-28T02:58:16.482Z,82.8
2023-04-28T03:00:43.122Z,81.3
2023-04-28T03:03:09.740Z,82.1
2023-04-28T03:05:36.363Z,79.5
2023-04-28T03:08:02.988Z,77.9
2023-04-28T03:10:29.604Z,82
2023-04-28T03:12:56.230Z,81.5
2023-04-28T03:15:22.843Z,82
2023-04-28T03:17:47.975Z,83.9
2023-04-28T03:20:14.609Z,84.5
2023-04-28T03:22:41.214Z,83
2023-04-28T03:25:07.838Z,82.3
2023-04-28T03:27:34.459Z,81.5
2023-04-28T03:30:01.083Z,81.6
2023-04-28T03:32:27.705Z,75.5
2023-04-28T03:34:54.325Z,76.5
2023-04-28T03:37:20.969Z,81.4
2023-04-28T03:39:47.575Z,80.4
2023-04-28T03:42:14.193Z,79.5
2023-04-28T03:44:40.829Z,82.7
2023-04-28T03:47:07.453Z,82.2
2023-04-28T03:49:32.560Z,81.8
2023-04-28T03:51:59.205Z,77.8
2023-04-28T03:54:25.828Z,73.8
2023-04-28T03:56:52.437Z,70.5
2023-04-28T03:59:18.262Z,70
2023-04-28T04:01:44.887Z,69.3
2023-04-28T04:04:11.521Z,70
2023-04-28T04:06:38.113Z,69.5
2023-04-28T04:09:04.745Z,66.6
2023-04-28T04:11:31.376Z,65.5
2023-04-28T04:13:57.991Z,64.8
2023-04-28T04:16:24.607Z,65.6
2023-04-28T04:21:17.872Z,66.5
2023-04-28T04:23:42.988Z,66.4
2023-04-28T04:26:09.613Z,64.9
2023-04-28T04:28:36.235Z,65.6
2023-04-28T04:31:02.859Z,62.5
2023-04-28T04:33:29.476Z,60.2
2023-04-28T04:35:56.101Z,62.1
2023-04-28T04:38:22.733Z,66.9
2023-04-28T04:40:49.381Z,65
2023-04-28T04:43:15.971Z,61.6
2023-04-28T04:45:42.604Z,59.8
2023-04-28T04:48:09.233Z,59.6
2023-04-28T04:50:35.857Z,58.7
2023-04-28T04:53:02.468Z,57.2
2023-04-28T04:55:27.586Z,57.5
2023-04-28T04:57:54.194Z,57.9
2023-04-28T05:00:20.830Z,58.3
2023-04-28T05:02:47.457Z,58.9
2023-04-28T05:05:14.067Z,61
2023-04-28T05:07:40.713Z,61.1
2023-04-28T05:10:07.316Z,60.9
2023-04-28T05:12:33.968Z,61
2023-04-28T05:15:00.575Z,59.6
2023-04-28T05:17:27.197Z,59.2
2023-04-28T05:19:53.804Z,62.2
2023-04-28T05:22:20.434Z,61.6
2023-04-28T05:24:47.052Z,63.8
2023-04-28T05:27:12.180Z,63.9
2023-04-28T05:29:38.886Z,64.2
2023-04-28T05:32:05.482Z,63.2
2023-04-28T05:34:32.071Z,63
2023-04-28T05:36:58.682Z,63.1
2023-04-28T05:39:25.311Z,61.5
2023-04-28T05:41:51.925Z,63.3
2023-04-28T05:44:18.553Z,61.3
2023-04-28T05:46:45.171Z,61.6
2023-04-28T05:49:11.791Z,61.3
2023-04-28T05:51:38.417Z,59.9
2023-04-28T05:54:05.036Z,61
2023-04-28T05:56:31.671Z,61.3
2023-04-28T05:58:58.284Z,61.1
2023-04-28T06:01:23.419Z,61.3
2023-04-28T06:03:50.040Z,60.3
2023-04-28T06:06:16.658Z,59.8
2023-04-28T06:08:43.314Z,60.3
2023-04-28T06:11:09.919Z,59
2023-04-28T06:13:36.537Z,56.2
2023-04-28T06:16:03.155Z,56.7
2023-04-28T06:18:29.776Z,57.2
2023-04-28T06:20:56.391Z,55.9
2023-04-28T06:23:23.026Z,55.5
2023-04-28T06:25:49.681Z,55.3
2023-04-28T06:28:16.285Z,54.3
2023-04-28T06:30:42.887Z,55.3
2023-04-28T06:33:08.012Z,54.4
2023-04-28T06:35:34.718Z,54.5
2023-04-28T06:38:01.260Z,53.8
2023-04-28T06:40:27.883Z,53.5
2023-04-28T06:42:54.560Z,53.8
2023-04-28T06:45:21.119Z,51.6
2023-04-28T06:47:47.738Z,50.9
2023-04-28T06:50:14.382Z,48.6
2023-04-28T06:52:41.005Z,47.8
2023-04-28T06:55:07.622Z,46
2023-04-28T06:57:34.232Z,45.1
2023-04-28T07:00:00.858Z,44
2023-04-28T07:02:27.494Z,43.1
2023-04-28T07:04:52.614Z,42.3
2023-04-28T07:07:19.231Z,41.8
2023-04-28T07:09:45.896Z,41.1
2023-04-28T07:12:12.469Z,40.4
2023-04-28T07:14:39.125Z,39.9
2023-04-28T07:17:05.720Z,39.6
2023-04-28T07:19:32.352Z,39.2
2023-04-28T07:21:58.962Z,38.8
2023-04-28T07:24:25.591Z,38.4
2023-04-28T07:26:52.225Z,38.1
2023-04-28T07:29:18.830Z,37.9
2023-04-28T07:31:45.453Z,38.1
2023-04-28T07:34:12.103Z,37.8
2023-04-28T07:36:37.402Z,37.4
2023-04-28T07:39:04.048Z,37.2
2023-04-28T07:41:30.480Z,37.1
2023-04-28T07:43:57.071Z,37.1
2023-04-28T07:46:23.823Z,36.9
2023-04-28T07:48:50.373Z,36.8
2023-04-28T07:53:43.585Z,36.3
2023-04-28T07:56:10.244Z,36.1
2023-04-28T07:58:36.885Z,35.9
2023-04-28T08:01:03.445Z,36.1
2023-04-28T08:03:30.064Z,36
2023-04-28T08:05:56.682Z,35.9
2023-04-28T08:08:21.810Z,35.7
2023-04-28T08:13:15.078Z,35.5
2023-04-28T08:18:08.376Z,35.3
2023-04-28T08:20:33.471Z,35.3
2023-04-28T08:22:58.560Z,35.2
2023-04-28T08:25:25.185Z,35
2023-04-28T08:27:51.809Z,34.9
2023-04-28T08:32:45.054Z,34.8
2023-04-28T08:37:38.295Z,34.5
2023-04-28T08:40:04.974Z,34.5
2023-04-28T08:42:31.691Z,34.4
2023-04-28T08:44:58.156Z,34.5
2023-04-28T08:47:24.775Z,34.4
2023-04-28T08:49:51.395Z,34.1
2023-04-28T08:52:18.037Z,33.9
2023-04-28T08:57:11.525Z,33.8
2023-04-28T09:02:04.552Z,33.2
2023-04-28T09:04:31.139Z,33
2023-04-28T09:06:57.868Z,32.8
2023-04-28T09:09:24.523Z,32.6
2023-04-28T09:11:49.505Z,32.3
2023-04-28T09:14:14.884Z,32.5
2023-04-28T09:16:41.267Z,32.7
2023-04-28T09:19:07.881Z,32.6
2023-04-28T09:21:34.498Z,32.3
2023-04-28T09:23:59.659Z,31.8
2023-04-28T09:26:26.322Z,31.5
2023-04-28T09:28:52.925Z,31.3
2023-04-28T09:31:19.516Z,31.3
2023-04-28T09:33:46.207Z,31.4
2023-04-28T09:36:12.800Z,31.7
2023-04-28T09:38:38.094Z,31.6
2023-04-28T09:41:03.006Z,31.5
2023-04-28T09:43:29.708Z,31.3
2023-04-28T09:45:56.274Z,31
2023-04-28T09:48:22.885Z,30.9
2023-04-28T09:50:49.566Z,30.6
2023-04-28T09:55:42.761Z,30.3
2023-04-28T09:58:09.474Z,30.2
2023-04-28T10:00:36.017Z,30
2023-04-28T10:03:02.638Z,29.6
2023-04-28T10:05:29.256Z,29.2
2023-04-28T10:07:55.883Z,29.8
2023-04-28T10:10:22.502Z,28.9
2023-04-28T10:15:15.794Z,30
2023-04-28T10:20:07.508Z,30.3
2023-04-28T10:22:34.153Z,29.4
2023-04-28T10:25:00.764Z,29.3
2023-04-28T10:32:20.729Z,29.3
2023-04-28T10:34:45.806Z,29.7
2023-04-28T10:37:10.892Z,30.9
2023-04-28T10:39:37.556Z,29.9
2023-04-28T10:42:04.138Z,29.7
2023-04-28T10:44:30.769Z,31.1
2023-04-28T10:46:57.389Z,30
2023-04-28T10:49:24.006Z,30.1
2023-04-28T10:51:50.620Z,32.2
2023-04-28T10:54:17.245Z,30.5
2023-04-28T10:56:43.878Z,33.9
2023-04-28T10:59:10.498Z,30.5
2023-04-28T11:04:03.773Z,37.6
2023-04-28T11:06:30.363Z,34.8
2023-04-28T11:08:56.985Z,34.7
2023-04-28T11:13:48.724Z,44
2023-04-28T11:16:15.336Z,45.8
2023-04-28T11:18:41.968Z,42.2
2023-04-28T11:21:08.600Z,43.3
2023-04-28T11:23:35.204Z,39.4
2023-04-28T11:26:01.830Z,38.7
2023-04-28T11:28:28.451Z,40.8
2023-04-28T11:35:48.548Z,46.8
2023-04-28T11:38:15.093Z,47
2023-04-28T11:40:41.720Z,50.8
2023-04-28T11:43:06.715Z,59.6
2023-04-28T11:45:33.509Z,65.2
2023-04-28T11:48:00.047Z,72.6
2023-04-28T11:50:26.705Z,67.6
2023-04-28T11:52:53.331Z,65.5
2023-04-28T11:55:19.806Z,60.9
2023-04-28T11:57:46.608Z,65.3
2023-04-28T12:00:13.167Z,73.4
2023-04-28T12:02:39.781Z,70.1
2023-04-28T12:05:06.327Z,65.3
2023-04-28T12:07:32.914Z,63.8
2023-04-28T12:09:59.545Z,62.1
2023-04-28T12:12:26.240Z,57.9
2023-04-28T12:14:52.969Z,49.8
2023-04-28T12:17:17.927Z,40.8
2023-04-28T12:19:44.544Z,37.4
2023-04-28T12:22:11.173Z,40.1
2023-04-28T12:24:36.396Z,38.4
2023-04-28T12:27:01.477Z,33.2
2023-04-28T12:29:28.058Z,36.2
2023-04-28T12:31:54.663Z,36.2
2023-04-28T12:34:21.287Z,36.2
2023-04-28T12:36:47.940Z,33.2
2023-04-28T12:41:41.164Z,37.4
2023-04-28T12:46:34.409Z,33.8
2023-04-28T12:49:01.050Z,34.2
2023-04-28T12:51:27.679Z,37.4
2023-04-28T12:53:54.274Z,34.8
2023-04-28T12:56:19.451Z,39.4
2023-04-28T12:58:44.553Z,40.3
2023-04-28T13:01:11.182Z,100
2023-04-28T13:03:37.780Z,100
2023-04-28T13:06:04.398Z,100
2023-04-28T13:08:31.054Z,100
2023-04-28T13:10:57.672Z,100
2023-04-28T13:13:24.283Z,100
2023-04-28T13:15:50.886Z,100
2023-04-28T13:18:17.527Z,100
2023-04-28T13:20:44.217Z,100
2023-04-28T13:23:09.270Z,100
2023-04-28T13:25:34.396Z,100
2023-04-28T13:28:01.044Z,100
2023-04-28T13:30:27.690Z,100
2023-04-28T13:32:54.281Z,100
2023-04-28T13:35:20.904Z,100
2023-04-28T13:37:47.524Z,100
2023-04-28T13:40:14.148Z,100
2023-04-28T13:42:40.810Z,100
2023-04-28T13:45:07.433Z,100
2023-04-28T13:47:34.069Z,100
2023-04-28T13:52:25.742Z,100
2023-04-28T13:54:50.890Z,100
2023-04-28T13:57:17.546Z,100
2023-04-28T13:59:44.132Z,100
2023-04-28T14:02:10.754Z,100
2023-04-28T14:07:04.000Z,100
2023-04-28T14:09:29.128Z,100
2023-04-28T14:11:54.300Z,100
2023-04-28T14:14:20.873Z,100
2023-04-28T14:16:47.521Z,100
2023-04-28T14:19:14.132Z,100
2023-04-28T14:21:40.753Z,100
2023-04-28T14:24:07.367Z,100
2023-04-28T14:26:33.993Z,100
2023-04-28T14:29:00.648Z,100
2023-04-28T14:31:27.221Z,100
2023-04-28T14:33:53.859Z,100
2023-04-28T14:36:20.480Z,100
2023-04-28T14:38:45.626Z,100
2023-04-28T14:41:10.737Z,100
2023-04-28T14:43:37.365Z,100
2023-04-28T14:46:03.981Z,100
2023-04-28T14:50:57.220Z,100
2023-04-28T14:53:23.841Z,100
2023-04-28T14:55:50.477Z,100
2023-04-28T14:58:17.116Z,100
2023-04-28T15:00:43.862Z,100
2023-04-28T15:03:10.508Z,100
2023-04-28T15:05:37.110Z,100
2023-04-28T15:08:03.722Z,100
2023-04-28T15:10:30.257Z,100
2023-04-28T15:12:55.394Z,100
2023-04-28T15:15:21.995Z,100
2023-04-28T15:17:48.566Z,100
2023-04-28T15:20:15.208Z,100
2023-04-28T15:22:41.882Z,100
2023-04-28T15:25:08.460Z,100
2023-04-28T15:27:35.069Z,100
2023-04-28T15:30:01.690Z,100
2023-04-28T15:34:53.452Z,100
2023-04-28T15:37:18.644Z,100
2023-04-28T15:39:45.200Z,100
2023-04-28T15:42:10.333Z,100
2023-04-28T15:44:35.445Z,100
2023-04-28T15:47:02.108Z,100
2023-04-28T15:49:28.695Z,100
2023-04-28T15:51:55.323Z,100
2023-04-28T15:54:21.950Z,100
2023-04-28T15:56:48.560Z,100
2023-04-28T15:59:15.179Z,100
2023-04-28T16:06:35.062Z,100
2023-04-28T16:11:28.303Z,100
2023-04-28T16:13:54.921Z,100
2023-04-28T16:16:21.555Z,100
2023-04-28T16:18:48.185Z,100
2023-04-28T16:21:13.319Z,100
2023-04-28T16:23:38.461Z,100
2023-04-28T16:26:05.079Z,100
2023-04-28T16:28:31.800Z,100
2023-04-28T16:30:58.349Z,100
2023-04-28T16:33:24.924Z,100
2023-04-28T16:35:51.547Z,100
2023-04-28T16:38:18.167Z,100
2023-04-28T16:40:44.794Z,100
2023-04-28T16:43:11.413Z,100
2023-04-28T16:48:04.655Z,100
2023-04-28T16:50:31.277Z,100
2023-04-28T16:55:24.519Z,100
2023-04-28T16:57:49.731Z,100
2023-04-28T17:00:14.848Z,100
2023-04-28T17:02:41.415Z,100
2023-04-28T17:05:08.036Z,100
2023-04-28T17:07:34.650Z,100
2023-04-28T17:10:01.262Z,100
2023-04-28T17:12:27.897Z,100
2023-04-28T17:14:54.526Z,100
2023-04-28T17:17:21.139Z,100
2023-04-28T17:19:47.763Z,100
2023-04-28T17:22:14.380Z,100
2023-04-28T17:24:41.056Z,100
2023-04-28T17:27:06.137Z,100
2023-04-28T17:29:32.756Z,100
2023-04-28T17:31:59.395Z,100
2023-04-28T17:34:26.013Z,100
2023-04-28T17:36:51.137Z,100
2023-04-28T17:39:17.750Z,100
2023-04-28T17:41:44.391Z,100
2023-04-28T17:44:11.017Z,100
2023-04-28T17:46:37.634Z,100
2023-04-28T17:49:04.251Z,100
2023-04-28T17:51:29.939Z,100
2023-04-28T17:53:55.070Z,100
2023-04-28T17:56:20.196Z,100
2023-04-28T18:01:13.549Z,100
2023-04-28T18:03:40.056Z,100
2023-04-28T18:08:33.300Z,100
2023-04-28T18:10:59.947Z,100
2023-04-28T18:13:26.549Z,100
2023-04-28T18:15:53.172Z,100
2023-04-28T18:18:19.841Z,100
2023-04-28T18:20:46.441Z,100
2023-04-28T18:23:13.047Z,100
2023-04-28T18:25:38.166Z,100
2023-04-28T18:28:04.799Z,100
2023-04-28T18:30:31.441Z,100
2023-04-28T18:32:56.547Z,100
2023-04-28T18:35:23.367Z,100
2023-04-28T18:37:49.791Z,100
2023-04-28T18:40:16.509Z,100
2023-04-28T18:45:09.784Z,100
2023-04-28T18:47:36.349Z,100
2023-04-28T18:50:02.956Z,100
2023-04-28T18:52:29.523Z,100
2023-04-28T18:54:56.154Z,100
2023-04-28T18:59:49.410Z,100
2023-04-28T19:02:14.535Z,100
2023-04-28T19:04:41.171Z,100
2023-04-28T19:07:07.771Z,100
2023-04-28T19:09:32.892Z,100
2023-04-28T19:11:59.532Z,100
2023-04-28T19:14:26.150Z,100
2023-04-28T19:16:52.773Z,100
2023-04-28T19:19:19.404Z,100
2023-04-28T19:21:46.021Z,100
2023-04-28T19:24:12.633Z,100
2023-04-28T19:29:05.887Z,100
2023-04-28T19:31:32.504Z,100
2023-04-28T19:33:59.135Z,100
2023-04-28T19:38:52.422Z,100
2023-04-28T19:41:19.015Z,100
2023-04-28T19:43:45.632Z,100
2023-04-28T19:46:12.251Z,100
2023-04-28T19:48:38.873Z,100
2023-04-28T19:51:04.008Z,100
2023-04-28T19:53:30.624Z,100
2023-04-28T19:58:23.874Z,100
2023-04-28T20:00:50.479Z,100
2023-04-28T20:03:17.114Z,100
2023-04-28T20:05:43.727Z,100
2023-04-28T20:08:10.354Z,100
2023-04-28T20:13:03.602Z,100
2023-04-28T20:15:30.264Z,100
2023-04-28T20:17:56.845Z,100
2023-04-28T20:20:23.469Z,100
2023-04-28T20:22:50.080Z,100
2023-04-28T20:27:43.337Z,100
2023-04-28T20:30:08.461Z,100
2023-04-28T20:32:35.096Z,100
2023-04-28T20:37:28.324Z,100
2023-04-28T20:42:21.569Z,100
2023-04-28T20:44:48.190Z,100
2023-04-28T20:47:14.812Z,100
2023-04-28T20:49:41.429Z,100
2023-04-28T20:52:08.061Z,100
2023-04-28T20:57:01.330Z,100
2023-04-28T20:59:27.929Z,100
2023-04-28T21:01:53.079Z,100
2023-04-28T21:04:19.678Z,100
2023-04-28T21:06:46.293Z,100
2023-04-28T21:09:12.930Z,100
2023-04-28T21:11:39.545Z,100
2023-04-28T21:14:06.158Z,100
2023-04-28T21:16:32.803Z,100
2023-04-28T21:18:59.432Z,100
2023-04-28T21:21:26.034Z,100
2023-04-28T21:26:19.281Z,100
2023-04-28T21:28:45.910Z,100
2023-04-28T21:31:12.525Z,100
2023-04-28T21:33:39.158Z,100
2023-04-28T21:36:05.763Z,100
2023-04-28T21:38:30.894Z,100
2023-04-28T21:40:57.514Z,100
2023-04-28T21:43:24.132Z,100
2023-04-28T21:45:50.765Z,100
2023-04-28T21:48:15.883Z,100
2023-04-28T21:50:41.028Z,100
2023-04-28T21:55:34.271Z,100
2023-04-28T21:58:00.890Z,100
2023-04-28T22:00:27.496Z,100
2023-04-28T22:02:54.119Z,100
2023-04-28T22:05:20.749Z,100
2023-04-28T22:10:14.005Z,100
2023-04-28T22:12:40.617Z,100
2023-04-28T22:15:07.242Z,100
2023-04-28T22:17:33.866Z,100
2023-04-28T22:20:00.494Z,100
2023-04-28T22:24:53.742Z,100
2023-04-28T22:27:18.876Z,100
2023-04-28T22:29:43.991Z,100
2023-04-28T22:32:10.630Z,100
2023-04-28T22:34:37.246Z,100
2023-04-28T22:39:30.487Z,100
2023-04-28T22:41:57.116Z,100
2023-04-28T22:44:23.746Z,100
2023-04-28T22:46:50.357Z,100
2023-04-28T22:49:16.986Z,100
2023-04-28T22:51:43.603Z,100
2023-04-28T22:54:10.225Z,100
2023-04-28T22:56:36.839Z,100
2023-04-28T22:59:03.473Z,100
2023-04-28T23:01:28.609Z,100
2023-04-28T23:03:55.227Z,100
2023-04-28T23:08:48.477Z,100
2023-04-28T23:11:15.095Z,100
2023-04-28T23:13:41.742Z,100
2023-04-28T23:16:08.338Z,100
2023-04-28T23:18:34.954Z,100
2023-04-28T23:23:28.208Z,100
2023-04-28T23:25:54.827Z,100
2023-04-28T23:28:21.454Z,100
2023-04-28T23:30:48.079Z,100
2023-04-28T23:33:13.199Z,100
2023-04-28T23:38:06.450Z,100
2023-04-28T23:40:33.096Z,100
2023-04-28T23:42:59.693Z,100
2023-04-28T23:45:26.320Z,100
2023-04-28T23:47:52.945Z,100
2023-04-28T23:52:46.196Z,100
2023-04-28T23:55:12.816Z,100
2023-04-28T23:57:39.435Z,100
